sensor_id;sensor_type;location;lat;lon;timestamp;temperature;humidity
33139;DHT22;19501;50.948;5.316;2023-05-29T00:01:13;16.20;99.90
33139;DHT22;19501;50.948;5.316;2023-05-29T00:03:38;16.10;99.90
33139;DHT22;19501;50.948;5.316;2023-05-29T00:06:04;16.10;99.90
33139;DHT22;19501;50.948;5.316;2023-05-29T00:08:31;16.00;99.90
33139;DHT22;19501;50.948;5.316;2023-05-29T00:10:57;15.90;99.90
33139;DHT22;19501;50.948;5.316;2023-05-29T00:13:22;15.90;99.90
33139;DHT22;19501;50.948;5.316;2023-05-29T00:15:48;15.80;99.90
33139;DHT22;19501;50.948;5.316;2023-05-29T00:18:14;15.80;99.90
33139;DHT22;19501;50.948;5.316;2023-05-29T00:20:39;15.80;99.90
33139;DHT22;19501;50.948;5.316;2023-05-29T00:23:05;15.80;99.90
33139;DHT22;19501;50.948;5.316;2023-05-29T00:25:32;15.80;99.90
33139;DHT22;19501;50.948;5.316;2023-05-29T00:27:58;15.80;99.90
33139;DHT22;19501;50.948;5.316;2023-05-29T00:30:24;15.70;99.90
33139;DHT22;19501;50.948;5.316;2023-05-29T00:32:50;15.60;99.90
33139;DHT22;19501;50.948;5.316;2023-05-29T00:35:17;15.60;99.90
33139;DHT22;19501;50.948;5.316;2023-05-29T00:37:43;15.70;99.90
33139;DHT22;19501;50.948;5.316;2023-05-29T00:40:08;15.70;99.90
33139;DHT22;19501;50.948;5.316;2023-05-29T00:42:36;15.50;99.90
33139;DHT22;19501;50.948;5.316;2023-05-29T00:45:02;15.50;99.90
33139;DHT22;19501;50.948;5.316;2023-05-29T00:47:28;15.50;99.90
33139;DHT22;19501;50.948;5.316;2023-05-29T00:49:53;15.40;99.90
33139;DHT22;19501;50.948;5.316;2023-05-29T00:52:20;15.30;99.90
33139;DHT22;19501;50.948;5.316;2023-05-29T00:54:46;15.20;99.90
33139;DHT22;19501;50.948;5.316;2023-05-29T00:57:12;15.10;99.90
33139;DHT22;19501;50.948;5.316;2023-05-29T00:59:38;15.00;99.90
33139;DHT22;19501;50.948;5.316;2023-05-29T01:02:04;14.90;99.90
33139;DHT22;19501;50.948;5.316;2023-05-29T01:04:30;14.90;99.90
33139;DHT22;19501;50.948;5.316;2023-05-29T01:07:00;14.80;99.90
33139;DHT22;19501;50.948;5.316;2023-05-29T01:09:25;14.80;99.90
33139;DHT22;19501;50.948;5.316;2023-05-29T01:12:11;14.70;99.90
33139;DHT22;19501;50.948;5.316;2023-05-29T01:17:24;14.70;99.90
33139;DHT22;19501;50.948;5.316;2023-05-29T01:22:40;14.60;99.90
33139;DHT22;19501;50.948;5.316;2023-05-29T01:25:11;14.50;99.90
33139;DHT22;19501;50.948;5.316;2023-05-29T01:27:37;14.50;99.90
33139;DHT22;19501;50.948;5.316;2023-05-29T01:30:05;14.40;99.90
33139;DHT22;19501;50.948;5.316;2023-05-29T01:32:32;14.20;99.90
33139;DHT22;19501;50.948;5.316;2023-05-29T01:34:58;14.20;99.90
33139;DHT22;19501;50.948;5.316;2023-05-29T01:37:24;14.20;99.90
33139;DHT22;19501;50.948;5.316;2023-05-29T01:39:49;14.20;99.90
33139;DHT22;19501;50.948;5.316;2023-05-29T01:42:15;14.10;99.90
33139;DHT22;19501;50.948;5.316;2023-05-29T01:44:41;14.10;99.90
33139;DHT22;19501;50.948;5.316;2023-05-29T01:47:07;14.00;99.90
33139;DHT22;19501;50.948;5.316;2023-05-29T01:49:32;14.00;99.90
33139;DHT22;19501;50.948;5.316;2023-05-29T01:51:58;14.00;99.90
33139;DHT22;19501;50.948;5.316;2023-05-29T01:54:23;14.00;99.90
33139;DHT22;19501;50.948;5.316;2023-05-29T01:56:49;13.90;99.90
33139;DHT22;19501;50.948;5.316;2023-05-29T01:59:15;13.70;99.90
33139;DHT22;19501;50.948;5.316;2023-05-29T02:01:41;13.70;99.90
33139;DHT22;19501;50.948;5.316;2023-05-29T02:04:07;13.50;99.90
33139;DHT22;19501;50.948;5.316;2023-05-29T02:06:32;13.50;99.90
33139;DHT22;19501;50.948;5.316;2023-05-29T02:08:58;13.50;99.90
33139;DHT22;19501;50.948;5.316;2023-05-29T02:11:24;13.50;99.90
33139;DHT22;19501;50.948;5.316;2023-05-29T02:13:51;13.50;99.90
33139;DHT22;19501;50.948;5.316;2023-05-29T02:16:16;13.50;99.90
33139;DHT22;19501;50.948;5.316;2023-05-29T02:18:42;13.40;99.90
33139;DHT22;19501;50.948;5.316;2023-05-29T02:21:08;13.40;99.90
33139;DHT22;19501;50.948;5.316;2023-05-29T02:23:34;13.40;99.90
33139;DHT22;19501;50.948;5.316;2023-05-29T02:26:00;13.40;99.90
33139;DHT22;19501;50.948;5.316;2023-05-29T02:28:25;13.30;99.90
33139;DHT22;19501;50.948;5.316;2023-05-29T02:30:51;13.20;99.90
33139;DHT22;19501;50.948;5.316;2023-05-29T02:33:16;13.20;99.90
33139;DHT22;19501;50.948;5.316;2023-05-29T02:35:44;13.10;99.90
33139;DHT22;19501;50.948;5.316;2023-05-29T02:38:10;13.10;99.90
33139;DHT22;19501;50.948;5.316;2023-05-29T02:40:35;13.10;99.90
33139;DHT22;19501;50.948;5.316;2023-05-29T02:43:04;13.10;99.90
33139;DHT22;19501;50.948;5.316;2023-05-29T02:45:30;13.00;99.90
33139;DHT22;19501;50.948;5.316;2023-05-29T02:47:55;13.00;99.90
33139;DHT22;19501;50.948;5.316;2023-05-29T02:50:21;13.00;99.90
33139;DHT22;19501;50.948;5.316;2023-05-29T02:52:46;13.00;99.90
33139;DHT22;19501;50.948;5.316;2023-05-29T02:55:15;12.90;99.90
33139;DHT22;19501;50.948;5.316;2023-05-29T02:57:41;12.70;99.90
33139;DHT22;19501;50.948;5.316;2023-05-29T03:00:07;12.70;99.90
33139;DHT22;19501;50.948;5.316;2023-05-29T03:02:33;12.60;99.90
33139;DHT22;19501;50.948;5.316;2023-05-29T03:05:00;12.60;99.90
33139;DHT22;19501;50.948;5.316;2023-05-29T03:07:25;12.60;99.90
33139;DHT22;19501;50.948;5.316;2023-05-29T03:09:53;12.60;99.90
33139;DHT22;19501;50.948;5.316;2023-05-29T03:12:19;12.50;99.90
33139;DHT22;19501;50.948;5.316;2023-05-29T03:14:44;12.50;99.90
33139;DHT22;19501;50.948;5.316;2023-05-29T03:17:10;12.50;99.90
33139;DHT22;19501;50.948;5.316;2023-05-29T03:19:35;12.50;99.90
33139;DHT22;19501;50.948;5.316;2023-05-29T03:22:02;12.40;99.90
33139;DHT22;19501;50.948;5.316;2023-05-29T03:24:27;12.30;99.90
33139;DHT22;19501;50.948;5.316;2023-05-29T03:26:53;12.20;99.90
33139;DHT22;19501;50.948;5.316;2023-05-29T03:29:18;12.20;99.90
33139;DHT22;19501;50.948;5.316;2023-05-29T03:31:44;12.20;99.90
33139;DHT22;19501;50.948;5.316;2023-05-29T03:34:10;12.20;99.90
33139;DHT22;19501;50.948;5.316;2023-05-29T03:36:35;12.20;99.90
33139;DHT22;19501;50.948;5.316;2023-05-29T03:39:04;12.20;99.90
33139;DHT22;19501;50.948;5.316;2023-05-29T03:41:30;12.20;99.90
33139;DHT22;19501;50.948;5.316;2023-05-29T03:43:55;12.30;99.90
33139;DHT22;19501;50.948;5.316;2023-05-29T03:46:21;12.10;99.90
33139;DHT22;19501;50.948;5.316;2023-05-29T03:48:46;12.00;99.90
33139;DHT22;19501;50.948;5.316;2023-05-29T03:51:12;12.00;99.90
33139;DHT22;19501;50.948;5.316;2023-05-29T03:53:37;12.10;99.90
33139;DHT22;19501;50.948;5.316;2023-05-29T03:56:03;12.10;99.90
33139;DHT22;19501;50.948;5.316;2023-05-29T03:58:28;12.10;99.90
33139;DHT22;19501;50.948;5.316;2023-05-29T04:00:54;12.10;99.90
33139;DHT22;19501;50.948;5.316;2023-05-29T04:03:20;12.20;99.90
33139;DHT22;19501;50.948;5.316;2023-05-29T04:05:45;12.20;99.90
33139;DHT22;19501;50.948;5.316;2023-05-29T04:08:11;12.20;99.90
33139;DHT22;19501;50.948;5.316;2023-05-29T04:10:38;12.10;99.90
33139;DHT22;19501;50.948;5.316;2023-05-29T04:13:04;12.10;99.90
33139;DHT22;19501;50.948;5.316;2023-05-29T04:15:29;12.00;99.90
33139;DHT22;19501;50.948;5.316;2023-05-29T04:17:55;11.90;99.90
33139;DHT22;19501;50.948;5.316;2023-05-29T04:20:21;11.90;99.90
33139;DHT22;19501;50.948;5.316;2023-05-29T04:22:46;12.00;99.90
33139;DHT22;19501;50.948;5.316;2023-05-29T04:25:12;12.00;99.90
33139;DHT22;19501;50.948;5.316;2023-05-29T04:27:38;12.00;99.90
33139;DHT22;19501;50.948;5.316;2023-05-29T04:30:04;11.90;99.90
33139;DHT22;19501;50.948;5.316;2023-05-29T04:32:30;11.80;99.90
33139;DHT22;19501;50.948;5.316;2023-05-29T04:34:56;11.80;99.90
33139;DHT22;19501;50.948;5.316;2023-05-29T04:37:21;11.80;99.90
33139;DHT22;19501;50.948;5.316;2023-05-29T04:39:54;11.90;99.90
33139;DHT22;19501;50.948;5.316;2023-05-29T04:42:20;11.90;99.90
33139;DHT22;19501;50.948;5.316;2023-05-29T04:44:45;11.90;99.90
33139;DHT22;19501;50.948;5.316;2023-05-29T04:47:11;11.90;99.90
33139;DHT22;19501;50.948;5.316;2023-05-29T04:49:39;11.90;99.90
33139;DHT22;19501;50.948;5.316;2023-05-29T04:52:04;11.90;99.90
33139;DHT22;19501;50.948;5.316;2023-05-29T04:54:30;11.90;99.90
33139;DHT22;19501;50.948;5.316;2023-05-29T04:56:55;12.00;99.90
33139;DHT22;19501;50.948;5.316;2023-05-29T04:59:21;12.00;99.90
33139;DHT22;19501;50.948;5.316;2023-05-29T05:01:47;11.90;99.90
33139;DHT22;19501;50.948;5.316;2023-05-29T05:04:13;11.90;99.90
33139;DHT22;19501;50.948;5.316;2023-05-29T05:06:38;11.90;99.90
33139;DHT22;19501;50.948;5.316;2023-05-29T05:09:04;11.90;99.90
33139;DHT22;19501;50.948;5.316;2023-05-29T05:11:30;12.00;99.90
33139;DHT22;19501;50.948;5.316;2023-05-29T05:13:55;12.00;99.90
33139;DHT22;19501;50.948;5.316;2023-05-29T05:16:21;12.10;99.90
33139;DHT22;19501;50.948;5.316;2023-05-29T05:18:46;12.10;99.90
33139;DHT22;19501;50.948;5.316;2023-05-29T05:21:12;12.20;99.90
33139;DHT22;19501;50.948;5.316;2023-05-29T05:23:37;12.30;99.90
33139;DHT22;19501;50.948;5.316;2023-05-29T05:26:03;12.40;99.90
33139;DHT22;19501;50.948;5.316;2023-05-29T05:28:28;12.40;99.90
33139;DHT22;19501;50.948;5.316;2023-05-29T05:30:54;12.50;99.90
33139;DHT22;19501;50.948;5.316;2023-05-29T05:33:19;12.50;99.90
33139;DHT22;19501;50.948;5.316;2023-05-29T05:35:45;12.60;99.90
33139;DHT22;19501;50.948;5.316;2023-05-29T05:38:11;12.60;99.90
33139;DHT22;19501;50.948;5.316;2023-05-29T05:40:37;12.60;99.90
33139;DHT22;19501;50.948;5.316;2023-05-29T05:43:03;12.60;99.90
33139;DHT22;19501;50.948;5.316;2023-05-29T05:45:28;12.60;99.90
33139;DHT22;19501;50.948;5.316;2023-05-29T05:47:54;12.60;99.90
33139;DHT22;19501;50.948;5.316;2023-05-29T05:50:20;12.60;99.90
33139;DHT22;19501;50.948;5.316;2023-05-29T05:52:46;12.50;99.90
33139;DHT22;19501;50.948;5.316;2023-05-29T05:55:12;12.60;99.90
33139;DHT22;19501;50.948;5.316;2023-05-29T05:57:37;12.60;99.90
33139;DHT22;19501;50.948;5.316;2023-05-29T06:00:03;12.60;99.90
33139;DHT22;19501;50.948;5.316;2023-05-29T06:02:37;12.70;99.90
33139;DHT22;19501;50.948;5.316;2023-05-29T06:05:03;12.80;99.90
33139;DHT22;19501;50.948;5.316;2023-05-29T06:07:29;12.90;99.90
33139;DHT22;19501;50.948;5.316;2023-05-29T06:09:55;13.00;99.90
33139;DHT22;19501;50.948;5.316;2023-05-29T06:12:21;13.00;99.90
33139;DHT22;19501;50.948;5.316;2023-05-29T06:14:46;13.10;99.90
33139;DHT22;19501;50.948;5.316;2023-05-29T06:17:12;13.20;99.90
33139;DHT22;19501;50.948;5.316;2023-05-29T06:19:38;13.30;99.90
33139;DHT22;19501;50.948;5.316;2023-05-29T06:22:03;13.30;99.90
33139;DHT22;19501;50.948;5.316;2023-05-29T06:24:29;13.40;99.90
33139;DHT22;19501;50.948;5.316;2023-05-29T06:26:58;13.50;99.90
33139;DHT22;19501;50.948;5.316;2023-05-29T06:29:24;13.50;99.90
33139;DHT22;19501;50.948;5.316;2023-05-29T06:31:49;13.60;99.90
33139;DHT22;19501;50.948;5.316;2023-05-29T06:34:15;13.70;99.90
33139;DHT22;19501;50.948;5.316;2023-05-29T06:36:40;13.80;99.90
33139;DHT22;19501;50.948;5.316;2023-05-29T06:39:07;13.80;99.90
33139;DHT22;19501;50.948;5.316;2023-05-29T06:41:32;13.90;99.90
33139;DHT22;19501;50.948;5.316;2023-05-29T06:43:58;14.00;99.90
33139;DHT22;19501;50.948;5.316;2023-05-29T06:46:23;14.10;99.90
33139;DHT22;19501;50.948;5.316;2023-05-29T06:48:49;14.20;99.90
33139;DHT22;19501;50.948;5.316;2023-05-29T06:51:15;14.20;99.90
33139;DHT22;19501;50.948;5.316;2023-05-29T06:53:41;14.20;99.90
33139;DHT22;19501;50.948;5.316;2023-05-29T06:56:07;14.20;99.90
33139;DHT22;19501;50.948;5.316;2023-05-29T06:58:35;14.30;99.90
33139;DHT22;19501;50.948;5.316;2023-05-29T07:01:00;14.60;99.90
33139;DHT22;19501;50.948;5.316;2023-05-29T07:03:26;14.70;99.90
33139;DHT22;19501;50.948;5.316;2023-05-29T07:05:54;14.60;99.90
33139;DHT22;19501;50.948;5.316;2023-05-29T07:08:20;14.70;99.90
33139;DHT22;19501;50.948;5.316;2023-05-29T07:10:46;14.70;99.90
33139;DHT22;19501;50.948;5.316;2023-05-29T07:13:15;15.00;99.90
33139;DHT22;19501;50.948;5.316;2023-05-29T07:15:56;15.00;99.90
33139;DHT22;19501;50.948;5.316;2023-05-29T07:18:22;15.00;99.90
33139;DHT22;19501;50.948;5.316;2023-05-29T07:20:47;15.10;99.90
33139;DHT22;19501;50.948;5.316;2023-05-29T07:23:13;15.10;99.90
33139;DHT22;19501;50.948;5.316;2023-05-29T07:25:38;15.20;99.90
33139;DHT22;19501;50.948;5.316;2023-05-29T07:28:04;15.30;99.90
33139;DHT22;19501;50.948;5.316;2023-05-29T07:30:29;15.40;99.90
33139;DHT22;19501;50.948;5.316;2023-05-29T07:32:55;15.30;99.90
33139;DHT22;19501;50.948;5.316;2023-05-29T07:35:21;15.40;99.90
33139;DHT22;19501;50.948;5.316;2023-05-29T07:37:46;15.60;99.90
33139;DHT22;19501;50.948;5.316;2023-05-29T07:40:13;15.90;99.90
33139;DHT22;19501;50.948;5.316;2023-05-29T07:42:42;16.00;99.90
33139;DHT22;19501;50.948;5.316;2023-05-29T07:45:10;15.90;99.90
33139;DHT22;19501;50.948;5.316;2023-05-29T07:47:36;16.00;99.90
33139;DHT22;19501;50.948;5.316;2023-05-29T07:50:02;16.20;99.90
33139;DHT22;19501;50.948;5.316;2023-05-29T07:52:29;16.20;99.90
33139;DHT22;19501;50.948;5.316;2023-05-29T07:54:55;16.30;99.90
33139;DHT22;19501;50.948;5.316;2023-05-29T07:57:21;16.40;99.90
33139;DHT22;19501;50.948;5.316;2023-05-29T07:59:46;16.40;99.90
33139;DHT22;19501;50.948;5.316;2023-05-29T08:02:14;16.60;99.90
33139;DHT22;19501;50.948;5.316;2023-05-29T08:04:40;16.80;99.90
33139;DHT22;19501;50.948;5.316;2023-05-29T08:07:06;16.90;99.90
33139;DHT22;19501;50.948;5.316;2023-05-29T08:09:32;17.00;99.90
33139;DHT22;19501;50.948;5.316;2023-05-29T08:11:57;17.00;99.90
33139;DHT22;19501;50.948;5.316;2023-05-29T08:14:24;16.90;99.90
33139;DHT22;19501;50.948;5.316;2023-05-29T08:16:51;16.80;99.90
33139;DHT22;19501;50.948;5.316;2023-05-29T08:19:16;16.80;99.90
33139;DHT22;19501;50.948;5.316;2023-05-29T08:21:42;16.70;99.90
33139;DHT22;19501;50.948;5.316;2023-05-29T08:24:10;16.90;99.90
33139;DHT22;19501;50.948;5.316;2023-05-29T08:26:35;17.10;99.90
33139;DHT22;19501;50.948;5.316;2023-05-29T08:29:01;17.20;99.90
33139;DHT22;19501;50.948;5.316;2023-05-29T08:31:27;17.30;99.90
33139;DHT22;19501;50.948;5.316;2023-05-29T08:33:53;17.40;99.90
33139;DHT22;19501;50.948;5.316;2023-05-29T08:36:19;17.30;99.90
33139;DHT22;19501;50.948;5.316;2023-05-29T08:38:50;17.10;99.90
33139;DHT22;19501;50.948;5.316;2023-05-29T08:44:05;17.50;99.90
33139;DHT22;19501;50.948;5.316;2023-05-29T08:46:35;17.80;99.90
33139;DHT22;19501;50.948;5.316;2023-05-29T08:49:01;17.90;99.90
33139;DHT22;19501;50.948;5.316;2023-05-29T08:51:29;17.90;99.90
33139;DHT22;19501;50.948;5.316;2023-05-29T08:53:56;17.90;99.90
33139;DHT22;19501;50.948;5.316;2023-05-29T08:56:22;17.60;99.90
33139;DHT22;19501;50.948;5.316;2023-05-29T08:58:48;17.80;99.90
33139;DHT22;19501;50.948;5.316;2023-05-29T09:01:16;18.10;99.90
33139;DHT22;19501;50.948;5.316;2023-05-29T09:03:42;18.10;99.80
33139;DHT22;19501;50.948;5.316;2023-05-29T09:06:07;17.80;99.50
33139;DHT22;19501;50.948;5.316;2023-05-29T09:08:34;17.90;99.50
33139;DHT22;19501;50.948;5.316;2023-05-29T09:10:59;17.90;99.50
33139;DHT22;19501;50.948;5.316;2023-05-29T09:13:25;18.00;99.50
33139;DHT22;19501;50.948;5.316;2023-05-29T09:15:59;18.20;99.90
33139;DHT22;19501;50.948;5.316;2023-05-29T09:18:31;18.40;99.40
33139;DHT22;19501;50.948;5.316;2023-05-29T09:20:57;18.30;98.60
33139;DHT22;19501;50.948;5.316;2023-05-29T09:23:23;18.50;98.60
33139;DHT22;19501;50.948;5.316;2023-05-29T09:25:51;18.70;98.60
33139;DHT22;19501;50.948;5.316;2023-05-29T09:28:17;18.90;98.50
33139;DHT22;19501;50.948;5.316;2023-05-29T09:30:45;19.10;98.50
33139;DHT22;19501;50.948;5.316;2023-05-29T09:33:12;19.20;97.60
33139;DHT22;19501;50.948;5.316;2023-05-29T09:35:39;19.20;98.00
33139;DHT22;19501;50.948;5.316;2023-05-29T09:38:08;19.30;97.20
33139;DHT22;19501;50.948;5.316;2023-05-29T09:40:34;19.50;97.00
33139;DHT22;19501;50.948;5.316;2023-05-29T09:43:13;19.60;96.70
33139;DHT22;19501;50.948;5.316;2023-05-29T09:45:40;19.50;97.20
33139;DHT22;19501;50.948;5.316;2023-05-29T09:48:12;19.80;97.80
33139;DHT22;19501;50.948;5.316;2023-05-29T09:50:37;20.00;96.00
33139;DHT22;19501;50.948;5.316;2023-05-29T09:53:07;19.80;95.80
33139;DHT22;19501;50.948;5.316;2023-05-29T09:55:41;19.90;96.70
33139;DHT22;19501;50.948;5.316;2023-05-29T09:58:07;19.90;96.10
33139;DHT22;19501;50.948;5.316;2023-05-29T10:00:33;20.00;95.50
33139;DHT22;19501;50.948;5.316;2023-05-29T10:02:58;20.20;95.20
33139;DHT22;19501;50.948;5.316;2023-05-29T10:05:24;20.20;95.00
33139;DHT22;19501;50.948;5.316;2023-05-29T10:07:50;20.40;95.30
33139;DHT22;19501;50.948;5.316;2023-05-29T10:10:18;20.50;94.30
33139;DHT22;19501;50.948;5.316;2023-05-29T10:12:44;20.30;94.60
33139;DHT22;19501;50.948;5.316;2023-05-29T10:15:14;20.50;95.60
33139;DHT22;19501;50.948;5.316;2023-05-29T10:17:43;20.60;94.10
33139;DHT22;19501;50.948;5.316;2023-05-29T10:20:12;20.70;94.10
33139;DHT22;19501;50.948;5.316;2023-05-29T10:22:42;20.80;93.90
33139;DHT22;19501;50.948;5.316;2023-05-29T10:25:13;20.90;93.70
33139;DHT22;19501;50.948;5.316;2023-05-29T10:27:38;21.00;93.60
33139;DHT22;19501;50.948;5.316;2023-05-29T10:30:15;21.10;93.00
33139;DHT22;19501;50.948;5.316;2023-05-29T10:37:40;21.00;92.70
33139;DHT22;19501;50.948;5.316;2023-05-29T10:40:09;21.00;92.90
33139;DHT22;19501;50.948;5.316;2023-05-29T10:45:10;20.80;92.50
33139;DHT22;19501;50.948;5.316;2023-05-29T10:47:38;21.00;93.30
33139;DHT22;19501;50.948;5.316;2023-05-29T10:50:04;21.40;93.00
33139;DHT22;19501;50.948;5.316;2023-05-29T10:52:34;21.50;92.40
33139;DHT22;19501;50.948;5.316;2023-05-29T10:55:01;21.80;91.80
33139;DHT22;19501;50.948;5.316;2023-05-29T10:57:29;22.20;91.20
33139;DHT22;19501;50.948;5.316;2023-05-29T11:00:05;22.50;90.90
33139;DHT22;19501;50.948;5.316;2023-05-29T11:02:32;22.40;90.40
33139;DHT22;19501;50.948;5.316;2023-05-29T11:05:31;22.70;90.10
33139;DHT22;19501;50.948;5.316;2023-05-29T11:07:51;23.00;90.00
33139;DHT22;19501;50.948;5.316;2023-05-29T11:11:02;23.60;89.50
33139;DHT22;19501;50.948;5.316;2023-05-29T11:13:31;23.70;88.30
33139;DHT22;19501;50.948;5.316;2023-05-29T11:18:43;24.10;85.50
33139;DHT22;19501;50.948;5.316;2023-05-29T11:21:21;24.00;85.20
33139;DHT22;19501;50.948;5.316;2023-05-29T11:23:48;24.20;84.50
33139;DHT22;19501;50.948;5.316;2023-05-29T11:26:15;24.30;85.20
33139;DHT22;19501;50.948;5.316;2023-05-29T11:28:42;24.70;85.70
33139;DHT22;19501;50.948;5.316;2023-05-29T11:31:08;25.00;83.10
33139;DHT22;19501;50.948;5.316;2023-05-29T11:33:33;24.90;81.10
33139;DHT22;19501;50.948;5.316;2023-05-29T11:36:01;25.10;82.50
33139;DHT22;19501;50.948;5.316;2023-05-29T11:38:27;25.00;81.50
33139;DHT22;19501;50.948;5.316;2023-05-29T11:40:56;25.20;80.90
33139;DHT22;19501;50.948;5.316;2023-05-29T11:43:23;24.70;80.60
33139;DHT22;19501;50.948;5.316;2023-05-29T11:45:49;25.50;83.90
33139;DHT22;19501;50.948;5.316;2023-05-29T11:48:15;26.20;81.20
33139;DHT22;19501;50.948;5.316;2023-05-29T11:50:40;26.10;80.10
33139;DHT22;19501;50.948;5.316;2023-05-29T11:53:06;26.50;78.80
33139;DHT22;19501;50.948;5.316;2023-05-29T11:55:32;26.10;78.60
33139;DHT22;19501;50.948;5.316;2023-05-29T11:57:59;26.00;80.60
33139;DHT22;19501;50.948;5.316;2023-05-29T12:00:25;26.30;77.90
33139;DHT22;19501;50.948;5.316;2023-05-29T12:02:51;26.50;78.00
33139;DHT22;19501;50.948;5.316;2023-05-29T12:05:17;26.30;76.60
33139;DHT22;19501;50.948;5.316;2023-05-29T12:07:52;26.30;76.20
33139;DHT22;19501;50.948;5.316;2023-05-29T12:10:19;26.40;77.30
33139;DHT22;19501;50.948;5.316;2023-05-29T12:12:52;26.40;75.60
33139;DHT22;19501;50.948;5.316;2023-05-29T12:15:18;25.60;75.10
33139;DHT22;19501;50.948;5.316;2023-05-29T12:17:44;25.80;75.40
33139;DHT22;19501;50.948;5.316;2023-05-29T12:20:10;26.10;76.00
33139;DHT22;19501;50.948;5.316;2023-05-29T12:22:37;26.10;76.80
33139;DHT22;19501;50.948;5.316;2023-05-29T12:25:13;25.70;77.20
33139;DHT22;19501;50.948;5.316;2023-05-29T12:27:39;26.30;75.90
33139;DHT22;19501;50.948;5.316;2023-05-29T12:30:12;26.90;74.80
33139;DHT22;19501;50.948;5.316;2023-05-29T12:32:40;27.50;75.10
33139;DHT22;19501;50.948;5.316;2023-05-29T12:37:58;27.00;73.20
33139;DHT22;19501;50.948;5.316;2023-05-29T12:40:24;27.30;73.10
33139;DHT22;19501;50.948;5.316;2023-05-29T12:42:54;27.40;75.20
33139;DHT22;19501;50.948;5.316;2023-05-29T12:45:24;27.80;74.40
33139;DHT22;19501;50.948;5.316;2023-05-29T12:47:51;27.50;72.70
33139;DHT22;19501;50.948;5.316;2023-05-29T12:50:25;27.80;72.10
33139;DHT22;19501;50.948;5.316;2023-05-29T12:53:04;27.60;72.10
33139;DHT22;19501;50.948;5.316;2023-05-29T12:55:33;27.00;71.80
33139;DHT22;19501;50.948;5.316;2023-05-29T12:58:02;26.70;72.00
33139;DHT22;19501;50.948;5.316;2023-05-29T13:00:28;26.50;72.20
33139;DHT22;19501;50.948;5.316;2023-05-29T13:02:54;26.10;72.80
33139;DHT22;19501;50.948;5.316;2023-05-29T13:05:20;26.60;73.50
33139;DHT22;19501;50.948;5.316;2023-05-29T13:07:48;26.10;73.20
33139;DHT22;19501;50.948;5.316;2023-05-29T13:10:14;26.20;73.30
33139;DHT22;19501;50.948;5.316;2023-05-29T13:12:40;25.70;73.40
33139;DHT22;19501;50.948;5.316;2023-05-29T13:15:06;25.70;74.50
33139;DHT22;19501;50.948;5.316;2023-05-29T13:17:32;26.10;74.70
33139;DHT22;19501;50.948;5.316;2023-05-29T13:19:58;25.70;73.10
33139;DHT22;19501;50.948;5.316;2023-05-29T13:22:23;25.40;73.80
33139;DHT22;19501;50.948;5.316;2023-05-29T13:24:49;25.50;74.00
33139;DHT22;19501;50.948;5.316;2023-05-29T13:27:14;25.30;74.90
33139;DHT22;19501;50.948;5.316;2023-05-29T13:29:44;25.80;73.90
33139;DHT22;19501;50.948;5.316;2023-05-29T13:32:09;26.00;72.60
33139;DHT22;19501;50.948;5.316;2023-05-29T13:34:35;25.50;72.80
33139;DHT22;19501;50.948;5.316;2023-05-29T13:37:00;25.80;74.50
33139;DHT22;19501;50.948;5.316;2023-05-29T13:39:27;26.40;72.50
33139;DHT22;19501;50.948;5.316;2023-05-29T13:41:53;26.90;72.90
33139;DHT22;19501;50.948;5.316;2023-05-29T13:44:19;26.80;71.60
33139;DHT22;19501;50.948;5.316;2023-05-29T13:46:44;26.20;71.60
33139;DHT22;19501;50.948;5.316;2023-05-29T13:49:12;26.20;72.50
33139;DHT22;19501;50.948;5.316;2023-05-29T13:51:38;26.30;73.00
33139;DHT22;19501;50.948;5.316;2023-05-29T13:54:03;26.00;71.40
33139;DHT22;19501;50.948;5.316;2023-05-29T13:56:29;25.40;71.80
33139;DHT22;19501;50.948;5.316;2023-05-29T13:58:55;25.30;73.00
33139;DHT22;19501;50.948;5.316;2023-05-29T14:01:21;25.50;73.20
33139;DHT22;19501;50.948;5.316;2023-05-29T14:03:47;26.10;72.60
33139;DHT22;19501;50.948;5.316;2023-05-29T14:06:15;26.30;71.20
33139;DHT22;19501;50.948;5.316;2023-05-29T14:08:40;26.30;71.70
33139;DHT22;19501;50.948;5.316;2023-05-29T14:11:06;26.10;72.20
33139;DHT22;19501;50.948;5.316;2023-05-29T14:13:31;25.30;71.90
33139;DHT22;19501;50.948;5.316;2023-05-29T14:15:57;25.20;73.50
33139;DHT22;19501;50.948;5.316;2023-05-29T14:18:23;25.70;73.00
33139;DHT22;19501;50.948;5.316;2023-05-29T14:20:48;25.70;73.40
33139;DHT22;19501;50.948;5.316;2023-05-29T14:23:16;25.80;72.80
33139;DHT22;19501;50.948;5.316;2023-05-29T14:25:42;26.00;73.00
33139;DHT22;19501;50.948;5.316;2023-05-29T14:28:07;26.80;73.00
33139;DHT22;19501;50.948;5.316;2023-05-29T14:30:33;26.30;71.20
33139;DHT22;19501;50.948;5.316;2023-05-29T14:32:58;26.10;72.20
33139;DHT22;19501;50.948;5.316;2023-05-29T14:35:25;26.10;70.70
33139;DHT22;19501;50.948;5.316;2023-05-29T14:37:50;25.80;72.00
33139;DHT22;19501;50.948;5.316;2023-05-29T14:40:16;26.00;71.70
33139;DHT22;19501;50.948;5.316;2023-05-29T14:42:42;26.00;71.70
33139;DHT22;19501;50.948;5.316;2023-05-29T14:45:08;25.90;70.20
33139;DHT22;19501;50.948;5.316;2023-05-29T14:47:34;25.30;71.40
33139;DHT22;19501;50.948;5.316;2023-05-29T14:50:00;24.90;72.80
33139;DHT22;19501;50.948;5.316;2023-05-29T14:52:26;24.50;73.70
33139;DHT22;19501;50.948;5.316;2023-05-29T14:54:51;24.00;74.40
33139;DHT22;19501;50.948;5.316;2023-05-29T14:57:17;24.00;75.10
33139;DHT22;19501;50.948;5.316;2023-05-29T14:59:42;24.00;73.90
33139;DHT22;19501;50.948;5.316;2023-05-29T15:02:08;23.80;73.60
33139;DHT22;19501;50.948;5.316;2023-05-29T15:04:35;23.80;74.20
33139;DHT22;19501;50.948;5.316;2023-05-29T15:07:01;23.70;74.50
33139;DHT22;19501;50.948;5.316;2023-05-29T15:09:26;23.50;73.90
33139;DHT22;19501;50.948;5.316;2023-05-29T15:11:52;23.60;74.70
33139;DHT22;19501;50.948;5.316;2023-05-29T15:14:17;23.70;72.70
33139;DHT22;19501;50.948;5.316;2023-05-29T15:16:43;23.90;73.20
33139;DHT22;19501;50.948;5.316;2023-05-29T15:19:09;24.00;72.90
33139;DHT22;19501;50.948;5.316;2023-05-29T15:21:36;23.50;74.50
33139;DHT22;19501;50.948;5.316;2023-05-29T15:24:01;23.50;74.40
33139;DHT22;19501;50.948;5.316;2023-05-29T15:26:27;23.50;74.50
33139;DHT22;19501;50.948;5.316;2023-05-29T15:28:52;23.20;74.50
33139;DHT22;19501;50.948;5.316;2023-05-29T15:31:18;23.30;74.70
33139;DHT22;19501;50.948;5.316;2023-05-29T15:33:43;23.10;73.70
33139;DHT22;19501;50.948;5.316;2023-05-29T15:36:09;23.10;74.70
33139;DHT22;19501;50.948;5.316;2023-05-29T15:38:35;23.40;73.50
33139;DHT22;19501;50.948;5.316;2023-05-29T15:41:00;23.30;74.20
33139;DHT22;19501;50.948;5.316;2023-05-29T15:43:26;23.00;74.70
33139;DHT22;19501;50.948;5.316;2023-05-29T15:45:51;22.90;74.80
33139;DHT22;19501;50.948;5.316;2023-05-29T15:48:17;22.60;75.70